sensor_id;sensor_type;location;lat;lon;timestamp;temperature;humidity
16283;DHT22;8249;48.708;9.030;2022-07-06T00:02:09;15.50;99.90
16283;DHT22;8249;48.708;9.030;2022-07-06T00:04:36;15.50;99.90
16283;DHT22;8249;48.708;9.030;2022-07-06T00:07:04;15.50;99.90
16283;DHT22;8249;48.708;9.030;2022-07-06T00:09:31;15.40;99.90
16283;DHT22;8249;48.708;9.030;2022-07-06T00:11:58;15.40;99.90
16283;DHT22;8249;48.708;9.030;2022-07-06T00:14:25;15.40;99.90
16283;DHT22;8249;48.708;9.030;2022-07-06T00:16:52;15.40;99.90
16283;DHT22;8249;48.708;9.030;2022-07-06T00:19:19;15.40;99.90
16283;DHT22;8249;48.708;9.030;2022-07-06T00:21:46;15.40;99.90
16283;DHT22;8249;48.708;9.030;2022-07-06T00:24:15;15.50;99.90
16283;DHT22;8249;48.708;9.030;2022-07-06T00:26:43;15.50;99.90
16283;DHT22;8249;48.708;9.030;2022-07-06T00:29:10;15.60;99.90
16283;DHT22;8249;48.708;9.030;2022-07-06T00:31:37;15.60;99.90
16283;DHT22;8249;48.708;9.030;2022-07-06T00:34:04;15.60;99.90
16283;DHT22;8249;48.708;9.030;2022-07-06T00:36:31;15.70;99.90
16283;DHT22;8249;48.708;9.030;2022-07-06T00:38:58;15.80;99.90
16283;DHT22;8249;48.708;9.030;2022-07-06T00:41:26;15.80;99.90
16283;DHT22;8249;48.708;9.030;2022-07-06T00:43:55;15.80;99.90
16283;DHT22;8249;48.708;9.030;2022-07-06T00:46:25;15.80;99.90
16283;DHT22;8249;48.708;9.030;2022-07-06T00:48:53;15.80;99.90
16283;DHT22;8249;48.708;9.030;2022-07-06T00:51:22;15.90;99.90
16283;DHT22;8249;48.708;9.030;2022-07-06T00:53:52;15.80;99.90
16283;DHT22;8249;48.708;9.030;2022-07-06T00:56:19;15.80;99.90
16283;DHT22;8249;48.708;9.030;2022-07-06T00:58:48;15.70;99.90
16283;DHT22;8249;48.708;9.030;2022-07-06T01:01:15;15.70;99.90
16283;DHT22;8249;48.708;9.030;2022-07-06T01:03:42;15.70;99.90
16283;DHT22;8249;48.708;9.030;2022-07-06T01:06:09;15.60;99.90
16283;DHT22;8249;48.708;9.030;2022-07-06T01:08:37;15.60;99.90
16283;DHT22;8249;48.708;9.030;2022-07-06T01:11:04;15.60;99.90
16283;DHT22;8249;48.708;9.030;2022-07-06T01:13:32;15.60;99.90
16283;DHT22;8249;48.708;9.030;2022-07-06T01:16:01;15.60;99.90
16283;DHT22;8249;48.708;9.030;2022-07-06T01:18:28;15.70;99.90
16283;DHT22;8249;48.708;9.030;2022-07-06T01:21:09;15.80;99.90
16283;DHT22;8249;48.708;9.030;2022-07-06T01:23:40;15.80;99.90
16283;DHT22;8249;48.708;9.030;2022-07-06T01:26:12;15.90;99.90
16283;DHT22;8249;48.708;9.030;2022-07-06T01:28:40;15.90;99.90
16283;DHT22;8249;48.708;9.030;2022-07-06T01:31:14;16.00;99.90
16283;DHT22;8249;48.708;9.030;2022-07-06T01:33:42;16.10;99.90
16283;DHT22;8249;48.708;9.030;2022-07-06T01:36:11;16.00;99.90
16283;DHT22;8249;48.708;9.030;2022-07-06T01:38:46;16.20;99.90
16283;DHT22;8249;48.708;9.030;2022-07-06T01:41:13;16.10;99.90
16283;DHT22;8249;48.708;9.030;2022-07-06T01:43:40;16.20;99.90
16283;DHT22;8249;48.708;9.030;2022-07-06T01:46:07;16.10;99.90
16283;DHT22;8249;48.708;9.030;2022-07-06T01:48:34;16.10;99.90
16283;DHT22;8249;48.708;9.030;2022-07-06T01:51:01;16.10;99.90
16283;DHT22;8249;48.708;9.030;2022-07-06T01:53:30;16.10;99.90
16283;DHT22;8249;48.708;9.030;2022-07-06T01:55:58;16.10;99.90
16283;DHT22;8249;48.708;9.030;2022-07-06T01:58:26;16.10;99.90
16283;DHT22;8249;48.708;9.030;2022-07-06T02:00:53;16.10;99.90
16283;DHT22;8249;48.708;9.030;2022-07-06T02:03:20;16.10;99.90
16283;DHT22;8249;48.708;9.030;2022-07-06T02:05:47;16.10;99.90
16283;DHT22;8249;48.708;9.030;2022-07-06T02:08:14;16.00;99.90
16283;DHT22;8249;48.708;9.030;2022-07-06T02:10:43;16.10;99.90
16283;DHT22;8249;48.708;9.030;2022-07-06T02:13:10;16.10;99.90
16283;DHT22;8249;48.708;9.030;2022-07-06T02:15:37;16.10;99.90
16283;DHT22;8249;48.708;9.030;2022-07-06T02:18:04;16.00;99.90
16283;DHT22;8249;48.708;9.030;2022-07-06T02:20:32;16.00;99.90
16283;DHT22;8249;48.708;9.030;2022-07-06T02:22:58;15.90;99.90
16283;DHT22;8249;48.708;9.030;2022-07-06T02:25:25;15.90;99.90
16283;DHT22;8249;48.708;9.030;2022-07-06T02:27:54;15.80;99.90
16283;DHT22;8249;48.708;9.030;2022-07-06T02:30:21;15.80;99.90
16283;DHT22;8249;48.708;9.030;2022-07-06T02:32:48;15.70;99.90
16283;DHT22;8249;48.708;9.030;2022-07-06T02:35:15;15.70;99.90
16283;DHT22;8249;48.708;9.030;2022-07-06T02:37:42;15.60;99.90
16283;DHT22;8249;48.708;9.030;2022-07-06T02:40:10;15.60;99.90
16283;DHT22;8249;48.708;9.030;2022-07-06T02:42:38;15.60;99.90
16283;DHT22;8249;48.708;9.030;2022-07-06T02:45:09;15.50;99.90
16283;DHT22;8249;48.708;9.030;2022-07-06T02:47:36;15.50;99.90
16283;DHT22;8249;48.708;9.030;2022-07-06T02:50:06;15.50;99.90
16283;DHT22;8249;48.708;9.030;2022-07-06T02:52:33;15.40;99.90
16283;DHT22;8249;48.708;9.030;2022-07-06T02:55:01;15.40;99.90
16283;DHT22;8249;48.708;9.030;2022-07-06T02:57:28;15.30;99.90
16283;DHT22;8249;48.708;9.030;2022-07-06T02:59:56;15.30;99.90
16283;DHT22;8249;48.708;9.030;2022-07-06T03:02:24;15.30;99.90
16283;DHT22;8249;48.708;9.030;2022-07-06T03:04:52;15.20;99.90
16283;DHT22;8249;48.708;9.030;2022-07-06T03:07:19;15.20;99.90
16283;DHT22;8249;48.708;9.030;2022-07-06T03:09:46;15.10;99.90
16283;DHT22;8249;48.708;9.030;2022-07-06T03:12:13;15.10;99.90
16283;DHT22;8249;48.708;9.030;2022-07-06T03:14:41;15.10;99.90
16283;DHT22;8249;48.708;9.030;2022-07-06T03:17:09;15.10;99.90
16283;DHT22;8249;48.708;9.030;2022-07-06T03:19:37;15.10;99.90
16283;DHT22;8249;48.708;9.030;2022-07-06T03:22:04;15.10;99.90
16283;DHT22;8249;48.708;9.030;2022-07-06T03:24:31;15.00;99.90
16283;DHT22;8249;48.708;9.030;2022-07-06T03:26:59;15.00;99.90
16283;DHT22;8249;48.708;9.030;2022-07-06T03:29:26;15.00;99.90
16283;DHT22;8249;48.708;9.030;2022-07-06T03:31:53;15.00;99.90
16283;DHT22;8249;48.708;9.030;2022-07-06T03:34:20;15.00;99.90
16283;DHT22;8249;48.708;9.030;2022-07-06T03:36:49;15.00;99.90
16283;DHT22;8249;48.708;9.030;2022-07-06T03:39:16;14.90;99.90
16283;DHT22;8249;48.708;9.030;2022-07-06T03:41:43;14.90;99.90
16283;DHT22;8249;48.708;9.030;2022-07-06T03:44:10;14.80;99.90
16283;DHT22;8249;48.708;9.030;2022-07-06T03:46:37;14.70;99.90
16283;DHT22;8249;48.708;9.030;2022-07-06T03:49:04;14.60;99.90
16283;DHT22;8249;48.708;9.030;2022-07-06T03:51:31;14.50;99.90
16283;DHT22;8249;48.708;9.030;2022-07-06T03:54:00;14.40;99.90
16283;DHT22;8249;48.708;9.030;2022-07-06T03:56:27;14.40;99.90
16283;DHT22;8249;48.708;9.030;2022-07-06T03:59:03;14.40;99.90
16283;DHT22;8249;48.708;9.030;2022-07-06T04:01:34;14.40;99.90
16283;DHT22;8249;48.708;9.030;2022-07-06T04:04:02;14.40;99.90
16283;DHT22;8249;48.708;9.030;2022-07-06T04:06:30;14.40;99.90
16283;DHT22;8249;48.708;9.030;2022-07-06T04:08:57;14.40;99.90
16283;DHT22;8249;48.708;9.030;2022-07-06T04:11:25;14.30;99.90
16283;DHT22;8249;48.708;9.030;2022-07-06T04:13:52;14.30;99.90
16283;DHT22;8249;48.708;9.030;2022-07-06T04:16:20;14.30;99.90
16283;DHT22;8249;48.708;9.030;2022-07-06T04:18:47;14.20;99.90
16283;DHT22;8249;48.708;9.030;2022-07-06T04:21:14;14.20;99.90
16283;DHT22;8249;48.708;9.030;2022-07-06T04:23:41;14.20;99.90
16283;DHT22;8249;48.708;9.030;2022-07-06T04:26:10;14.30;99.90
16283;DHT22;8249;48.708;9.030;2022-07-06T04:28:39;14.30;99.90
16283;DHT22;8249;48.708;9.030;2022-07-06T04:31:06;14.40;99.90
16283;DHT22;8249;48.708;9.030;2022-07-06T04:33:34;14.40;99.90
16283;DHT22;8249;48.708;9.030;2022-07-06T04:36:01;14.40;99.90
16283;DHT22;8249;48.708;9.030;2022-07-06T04:38:36;14.50;99.90
16283;DHT22;8249;48.708;9.030;2022-07-06T04:41:06;14.50;99.90
16283;DHT22;8249;48.708;9.030;2022-07-06T04:43:33;14.60;99.90
16283;DHT22;8249;48.708;9.030;2022-07-06T04:46:01;14.60;99.90
16283;DHT22;8249;48.708;9.030;2022-07-06T04:48:30;14.70;99.90
16283;DHT22;8249;48.708;9.030;2022-07-06T04:50:58;14.80;99.90
16283;DHT22;8249;48.708;9.030;2022-07-06T04:53:27;14.90;99.90
16283;DHT22;8249;48.708;9.030;2022-07-06T04:55:55;15.00;99.90
16283;DHT22;8249;48.708;9.030;2022-07-06T04:58:23;15.10;99.90
16283;DHT22;8249;48.708;9.030;2022-07-06T05:00:51;15.20;99.90
16283;DHT22;8249;48.708;9.030;2022-07-06T05:03:21;15.30;99.90
16283;DHT22;8249;48.708;9.030;2022-07-06T05:05:48;15.30;99.90
16283;DHT22;8249;48.708;9.030;2022-07-06T05:08:15;15.40;99.90
16283;DHT22;8249;48.708;9.030;2022-07-06T05:10:42;15.40;99.90
16283;DHT22;8249;48.708;9.030;2022-07-06T05:13:09;15.50;99.90
16283;DHT22;8249;48.708;9.030;2022-07-06T05:15:37;15.50;99.90
16283;DHT22;8249;48.708;9.030;2022-07-06T05:18:04;15.60;99.90
16283;DHT22;8249;48.708;9.030;2022-07-06T05:20:32;15.70;99.90
16283;DHT22;8249;48.708;9.030;2022-07-06T05:23:00;15.70;99.90
16283;DHT22;8249;48.708;9.030;2022-07-06T05:25:30;15.80;99.90
16283;DHT22;8249;48.708;9.030;2022-07-06T05:27:58;15.70;99.90
16283;DHT22;8249;48.708;9.030;2022-07-06T05:30:26;15.80;99.90
16283;DHT22;8249;48.708;9.030;2022-07-06T05:32:54;15.90;99.90
16283;DHT22;8249;48.708;9.030;2022-07-06T05:35:21;15.90;99.90
16283;DHT22;8249;48.708;9.030;2022-07-06T05:37:50;16.00;99.90
16283;DHT22;8249;48.708;9.030;2022-07-06T05:40:18;16.10;99.90
16283;DHT22;8249;48.708;9.030;2022-07-06T05:42:45;16.20;99.90
16283;DHT22;8249;48.708;9.030;2022-07-06T05:45:12;16.20;99.90
16283;DHT22;8249;48.708;9.030;2022-07-06T05:47:40;16.30;99.90
16283;DHT22;8249;48.708;9.030;2022-07-06T05:50:25;16.40;99.90
16283;DHT22;8249;48.708;9.030;2022-07-06T05:52:58;16.40;99.90
16283;DHT22;8249;48.708;9.030;2022-07-06T05:55:28;16.40;99.90
16283;DHT22;8249;48.708;9.030;2022-07-06T05:57:56;16.50;99.90
16283;DHT22;8249;48.708;9.030;2022-07-06T06:00:27;16.60;99.90
16283;DHT22;8249;48.708;9.030;2022-07-06T06:02:58;16.60;99.90
16283;DHT22;8249;48.708;9.030;2022-07-06T06:05:26;16.70;99.90
16283;DHT22;8249;48.708;9.030;2022-07-06T06:07:59;16.80;99.90
16283;DHT22;8249;48.708;9.030;2022-07-06T06:10:26;16.90;99.90
16283;DHT22;8249;48.708;9.030;2022-07-06T06:12:57;17.00;99.90
16283;DHT22;8249;48.708;9.030;2022-07-06T06:15:24;17.10;99.90
16283;DHT22;8249;48.708;9.030;2022-07-06T06:17:51;17.20;99.90
16283;DHT22;8249;48.708;9.030;2022-07-06T06:20:18;17.20;99.90
16283;DHT22;8249;48.708;9.030;2022-07-06T06:22:47;17.20;99.90
16283;DHT22;8249;48.708;9.030;2022-07-06T06:25:16;17.40;99.90
16283;DHT22;8249;48.708;9.030;2022-07-06T06:27:44;17.40;99.90
16283;DHT22;8249;48.708;9.030;2022-07-06T06:30:12;17.50;99.90
16283;DHT22;8249;48.708;9.030;2022-07-06T06:32:40;17.60;99.90
16283;DHT22;8249;48.708;9.030;2022-07-06T06:35:07;17.80;99.90
16283;DHT22;8249;48.708;9.030;2022-07-06T06:37:35;18.00;99.90
16283;DHT22;8249;48.708;9.030;2022-07-06T06:40:03;18.00;99.90
16283;DHT22;8249;48.708;9.030;2022-07-06T06:42:31;17.90;99.90
16283;DHT22;8249;48.708;9.030;2022-07-06T06:44:59;17.90;99.90
16283;DHT22;8249;48.708;9.030;2022-07-06T06:47:26;18.00;99.90
16283;DHT22;8249;48.708;9.030;2022-07-06T06:49:55;17.90;99.90
16283;DHT22;8249;48.708;9.030;2022-07-06T06:52:22;17.90;99.90
16283;DHT22;8249;48.708;9.030;2022-07-06T06:54:49;17.90;99.90
16283;DHT22;8249;48.708;9.030;2022-07-06T06:57:16;18.10;99.90
16283;DHT22;8249;48.708;9.030;2022-07-06T06:59:44;18.10;99.90
16283;DHT22;8249;48.708;9.030;2022-07-06T07:02:11;18.30;99.90
16283;DHT22;8249;48.708;9.030;2022-07-06T07:04:38;18.30;99.90
16283;DHT22;8249;48.708;9.030;2022-07-06T07:07:05;18.60;99.90
16283;DHT22;8249;48.708;9.030;2022-07-06T07:09:32;18.70;99.90
16283;DHT22;8249;48.708;9.030;2022-07-06T07:11:59;18.70;99.90
16283;DHT22;8249;48.708;9.030;2022-07-06T07:14:26;18.80;99.90
16283;DHT22;8249;48.708;9.030;2022-07-06T07:16:55;19.10;99.90
16283;DHT22;8249;48.708;9.030;2022-07-06T07:19:22;19.20;99.90
16283;DHT22;8249;48.708;9.030;2022-07-06T07:21:49;19.10;99.90
16283;DHT22;8249;48.708;9.030;2022-07-06T07:24:16;19.20;99.90
16283;DHT22;8249;48.708;9.030;2022-07-06T07:26:43;19.00;99.90
16283;DHT22;8249;48.708;9.030;2022-07-06T07:29:10;19.20;99.90
16283;DHT22;8249;48.708;9.030;2022-07-06T07:31:37;19.30;99.90
16283;DHT22;8249;48.708;9.030;2022-07-06T07:34:05;19.30;99.90
16283;DHT22;8249;48.708;9.030;2022-07-06T07:36:32;19.40;99.90
16283;DHT22;8249;48.708;9.030;2022-07-06T07:38:59;19.40;99.90
16283;DHT22;8249;48.708;9.030;2022-07-06T07:41:26;19.60;99.90
16283;DHT22;8249;48.708;9.030;2022-07-06T07:43:53;19.70;99.90
16283;DHT22;8249;48.708;9.030;2022-07-06T07:46:20;19.90;99.90
16283;DHT22;8249;48.708;9.030;2022-07-06T07:48:47;19.70;99.90
16283;DHT22;8249;48.708;9.030;2022-07-06T07:51:15;19.50;99.90
16283;DHT22;8249;48.708;9.030;2022-07-06T07:53:42;19.50;99.90
16283;DHT22;8249;48.708;9.030;2022-07-06T07:56:09;19.70;99.90
16283;DHT22;8249;48.708;9.030;2022-07-06T07:58:37;20.00;99.90
16283;DHT22;8249;48.708;9.030;2022-07-06T08:01:04;20.20;99.90
16283;DHT22;8249;48.708;9.030;2022-07-06T08:03:31;20.30;99.90
16283;DHT22;8249;48.708;9.030;2022-07-06T08:05:58;20.50;99.90
16283;DHT22;8249;48.708;9.030;2022-07-06T08:08:26;20.60;99.90
16283;DHT22;8249;48.708;9.030;2022-07-06T08:10:53;20.70;99.90
16283;DHT22;8249;48.708;9.030;2022-07-06T08:13:20;20.90;99.90
16283;DHT22;8249;48.708;9.030;2022-07-06T08:15:47;21.00;99.90
16283;DHT22;8249;48.708;9.030;2022-07-06T08:18:14;21.00;99.90
16283;DHT22;8249;48.708;9.030;2022-07-06T08:20:41;20.90;99.90
16283;DHT22;8249;48.708;9.030;2022-07-06T08:23:08;20.90;99.90
16283;DHT22;8249;48.708;9.030;2022-07-06T08:25:36;21.10;99.90
16283;DHT22;8249;48.708;9.030;2022-07-06T08:28:04;21.20;99.90
16283;DHT22;8249;48.708;9.030;2022-07-06T08:30:30;21.30;99.90
16283;DHT22;8249;48.708;9.030;2022-07-06T08:33:00;21.40;99.90
16283;DHT22;8249;48.708;9.030;2022-07-06T08:35:28;21.40;99.90
16283;DHT22;8249;48.708;9.030;2022-07-06T08:37:55;21.60;99.90
16283;DHT22;8249;48.708;9.030;2022-07-06T08:40:22;21.90;99.90
16283;DHT22;8249;48.708;9.030;2022-07-06T08:42:53;22.10;99.90
16283;DHT22;8249;48.708;9.030;2022-07-06T08:45:20;22.30;99.90
16283;DHT22;8249;48.708;9.030;2022-07-06T08:47:49;22.50;99.90
16283;DHT22;8249;48.708;9.030;2022-07-06T08:50:17;22.60;99.90
16283;DHT22;8249;48.708;9.030;2022-07-06T08:52:47;22.50;99.90
16283;DHT22;8249;48.708;9.030;2022-07-06T08:55:14;22.60;99.90
16283;DHT22;8249;48.708;9.030;2022-07-06T08:57:42;22.70;99.90
16283;DHT22;8249;48.708;9.030;2022-07-06T09:00:14;22.70;99.90
16283;DHT22;8249;48.708;9.030;2022-07-06T09:02:42;22.70;99.90
16283;DHT22;8249;48.708;9.030;2022-07-06T09:05:14;22.80;99.90
16283;DHT22;8249;48.708;9.030;2022-07-06T09:07:41;22.70;99.90
16283;DHT22;8249;48.708;9.030;2022-07-06T09:10:09;22.70;99.90
16283;DHT22;8249;48.708;9.030;2022-07-06T09:12:36;22.70;99.90
16283;DHT22;8249;48.708;9.030;2022-07-06T09:15:03;22.80;99.90
16283;DHT22;8249;48.708;9.030;2022-07-06T09:17:32;23.00;99.90
16283;DHT22;8249;48.708;9.030;2022-07-06T09:20:00;23.10;99.90
16283;DHT22;8249;48.708;9.030;2022-07-06T09:22:28;23.10;99.90
16283;DHT22;8249;48.708;9.030;2022-07-06T09:25:08;23.40;99.90
16283;DHT22;8249;48.708;9.030;2022-07-06T09:27:39;23.60;99.90
16283;DHT22;8249;48.708;9.030;2022-07-06T09:30:08;23.70;99.90
16283;DHT22;8249;48.708;9.030;2022-07-06T09:32:42;23.90;99.90
16283;DHT22;8249;48.708;9.030;2022-07-06T09:35:19;23.90;99.90
16283;DHT22;8249;48.708;9.030;2022-07-06T09:37:47;23.70;99.90
16283;DHT22;8249;48.708;9.030;2022-07-06T09:40:17;23.60;99.90
16283;DHT22;8249;48.708;9.030;2022-07-06T09:42:45;23.80;99.90
16283;DHT22;8249;48.708;9.030;2022-07-06T09:45:12;23.90;99.90
16283;DHT22;8249;48.708;9.030;2022-07-06T09:47:40;24.20;99.90
16283;DHT22;8249;48.708;9.030;2022-07-06T09:50:15;24.20;99.90
16283;DHT22;8249;48.708;9.030;2022-07-06T09:52:53;23.80;99.90
16283;DHT22;8249;48.708;9.030;2022-07-06T09:55:22;24.20;99.90
16283;DHT22;8249;48.708;9.030;2022-07-06T09:57:52;24.10;99.90
16283;DHT22;8249;48.708;9.030;2022-07-06T10:00:21;24.40;99.90
16283;DHT22;8249;48.708;9.030;2022-07-06T10:02:49;25.10;99.90
16283;DHT22;8249;48.708;9.030;2022-07-06T10:05:17;25.70;99.90
16283;DHT22;8249;48.708;9.030;2022-07-06T10:07:46;25.90;99.90
16283;DHT22;8249;48.708;9.030;2022-07-06T10:10:16;25.30;99.30
16283;DHT22;8249;48.708;9.030;2022-07-06T10:12:44;25.50;99.90
16283;DHT22;8249;48.708;9.030;2022-07-06T10:15:16;26.00;99.90
16283;DHT22;8249;48.708;9.030;2022-07-06T10:17:44;25.90;99.30
16283;DHT22;8249;48.708;9.030;2022-07-06T10:20:14;25.30;99.40
16283;DHT22;8249;48.708;9.030;2022-07-06T10:22:42;25.60;99.80
16283;DHT22;8249;48.708;9.030;2022-07-06T10:25:09;26.20;99.30
16283;DHT22;8249;48.708;9.030;2022-07-06T10:27:38;26.70;98.30
16283;DHT22;8249;48.708;9.030;2022-07-06T10:30:07;27.10;97.40
16283;DHT22;8249;48.708;9.030;2022-07-06T10:32:35;27.20;98.10
16283;DHT22;8249;48.708;9.030;2022-07-06T10:35:03;27.80;97.20
16283;DHT22;8249;48.708;9.030;2022-07-06T10:37:31;28.20;96.40
16283;DHT22;8249;48.708;9.030;2022-07-06T10:39:59;27.90;96.70
16283;DHT22;8249;48.708;9.030;2022-07-06T10:42:45;28.30;97.00
16283;DHT22;8249;48.708;9.030;2022-07-06T10:45:20;27.90;95.70
16283;DHT22;8249;48.708;9.030;2022-07-06T10:47:50;27.50;95.80
16283;DHT22;8249;48.708;9.030;2022-07-06T10:50:35;26.90;95.90
16283;DHT22;8249;48.708;9.030;2022-07-06T10:53:10;26.20;95.90
16283;DHT22;8249;48.708;9.030;2022-07-06T10:55:39;25.80;97.40
16283;DHT22;8249;48.708;9.030;2022-07-06T10:58:07;25.40;97.60
16283;DHT22;8249;48.708;9.030;2022-07-06T11:00:50;24.80;97.90
16283;DHT22;8249;48.708;9.030;2022-07-06T11:03:31;24.70;98.90
16283;DHT22;8249;48.708;9.030;2022-07-06T11:05:59;24.50;98.90
16283;DHT22;8249;48.708;9.030;2022-07-06T11:08:52;24.20;98.70
16283;DHT22;8249;48.708;9.030;2022-07-06T11:11:20;24.60;99.20
16283;DHT22;8249;48.708;9.030;2022-07-06T11:14:00;24.60;98.50
16283;DHT22;8249;48.708;9.030;2022-07-06T11:16:29;25.80;99.20
16283;DHT22;8249;48.708;9.030;2022-07-06T11:19:05;26.40;98.00
16283;DHT22;8249;48.708;9.030;2022-07-06T11:21:36;27.10;96.70
16283;DHT22;8249;48.708;9.030;2022-07-06T11:24:06;27.40;96.40
16283;DHT22;8249;48.708;9.030;2022-07-06T11:26:34;27.20;96.00
16283;DHT22;8249;48.708;9.030;2022-07-06T11:29:04;27.80;96.60
16283;DHT22;8249;48.708;9.030;2022-07-06T11:31:34;27.70;95.50
16283;DHT22;8249;48.708;9.030;2022-07-06T11:34:02;26.90;96.00
16283;DHT22;8249;48.708;9.030;2022-07-06T11:36:29;26.40;95.70
16283;DHT22;8249;48.708;9.030;2022-07-06T11:38:57;26.20;95.50
16283;DHT22;8249;48.708;9.030;2022-07-06T11:41:25;26.20;95.90
16283;DHT22;8249;48.708;9.030;2022-07-06T11:43:53;25.90;95.80
16283;DHT22;8249;48.708;9.030;2022-07-06T11:46:22;25.80;96.80
16283;DHT22;8249;48.708;9.030;2022-07-06T11:48:49;26.50;96.80
16283;DHT22;8249;48.708;9.030;2022-07-06T11:51:17;26.70;96.30
16283;DHT22;8249;48.708;9.030;2022-07-06T11:53:45;26.80;95.80
16283;DHT22;8249;48.708;9.030;2022-07-06T11:56:14;26.20;95.80
16283;DHT22;8249;48.708;9.030;2022-07-06T11:58:42;25.80;96.30
16283;DHT22;8249;48.708;9.030;2022-07-06T12:01:13;25.50;96.70
16283;DHT22;8249;48.708;9.030;2022-07-06T12:03:40;25.30;97.00
16283;DHT22;8249;48.708;9.030;2022-07-06T12:06:14;26.00;96.80
16283;DHT22;8249;48.708;9.030;2022-07-06T12:08:42;26.60;95.80
16283;DHT22;8249;48.708;9.030;2022-07-06T12:11:10;26.50;94.70
16283;DHT22;8249;48.708;9.030;2022-07-06T12:13:37;26.60;95.60
16283;DHT22;8249;48.708;9.030;2022-07-06T12:16:13;27.50;95.70
16283;DHT22;8249;48.708;9.030;2022-07-06T12:18:43;26.80;93.90
16283;DHT22;8249;48.708;9.030;2022-07-06T12:21:12;26.50;95.10
16283;DHT22;8249;48.708;9.030;2022-07-06T12:23:41;25.90;96.10
16283;DHT22;8249;48.708;9.030;2022-07-06T12:26:09;25.70;96.50
16283;DHT22;8249;48.708;9.030;2022-07-06T12:28:36;25.50;96.10
16283;DHT22;8249;48.708;9.030;2022-07-06T12:31:04;25.50;96.50
16283;DHT22;8249;48.708;9.030;2022-07-06T12:33:32;25.40;97.00
16283;DHT22;8249;48.708;9.030;2022-07-06T12:36:10;25.90;97.80
16283;DHT22;8249;48.708;9.030;2022-07-06T12:38:44;27.20;96.90
16283;DHT22;8249;48.708;9.030;2022-07-06T12:41:23;27.40;95.10
16283;DHT22;8249;48.708;9.030;2022-07-06T12:44:00;28.20;94.50
16283;DHT22;8249;48.708;9.030;2022-07-06T12:46:29;28.70;94.60
16283;DHT22;8249;48.708;9.030;2022-07-06T12:49:00;29.00;93.30
16283;DHT22;8249;48.708;9.030;2022-07-06T12:51:27;29.10;93.10
16283;DHT22;8249;48.708;9.030;2022-07-06T12:54:12;27.90;92.40
16283;DHT22;8249;48.708;9.030;2022-07-06T12:57:07;26.90;92.80
16283;DHT22;8249;48.708;9.030;2022-07-06T12:59:40;26.90;93.30
16283;DHT22;8249;48.708;9.030;2022-07-06T13:02:09;26.30;94.40
16283;DHT22;8249;48.708;9.030;2022-07-06T13:04:38;25.90;94.50
16283;DHT22;8249;48.708;9.030;2022-07-06T13:07:05;25.80;94.80
16283;DHT22;8249;48.708;9.030;2022-07-06T13:09:32;26.00;94.70
16283;DHT22;8249;48.708;9.030;2022-07-06T13:11:59;26.30;94.20
16283;DHT22;8249;48.708;9.030;2022-07-06T13:14:26;26.50;94.30
16283;DHT22;8249;48.708;9.030;2022-07-06T13:16:53;26.70;93.80
16283;DHT22;8249;48.708;9.030;2022-07-06T13:19:21;26.90;94.00
16283;DHT22;8249;48.708;9.030;2022-07-06T13:21:49;27.90;94.20
16283;DHT22;8249;48.708;9.030;2022-07-06T13:24:16;28.30;92.60
16283;DHT22;8249;48.708;9.030;2022-07-06T13:26:43;28.70;92.40
16283;DHT22;8249;48.708;9.030;2022-07-06T13:29:12;29.00;91.40
16283;DHT22;8249;48.708;9.030;2022-07-06T13:31:40;28.10;91.50
16283;DHT22;8249;48.708;9.030;2022-07-06T13:34:07;28.40;91.60
16283;DHT22;8249;48.708;9.030;2022-07-06T13:36:35;28.40;90.70
16283;DHT22;8249;48.708;9.030;2022-07-06T13:39:03;29.10;91.40
16283;DHT22;8249;48.708;9.030;2022-07-06T13:41:31;29.40;91.20
16283;DHT22;8249;48.708;9.030;2022-07-06T13:43:58;28.80;90.40
16283;DHT22;8249;48.708;9.030;2022-07-06T13:46:26;28.80;91.10
16283;DHT22;8249;48.708;9.030;2022-07-06T13:48:54;29.00;89.30
16283;DHT22;8249;48.708;9.030;2022-07-06T13:51:22;28.90;90.10
16283;DHT22;8249;48.708;9.030;2022-07-06T13:53:50;29.30;91.30
16283;DHT22;8249;48.708;9.030;2022-07-06T13:56:18;28.60;88.10
16283;DHT22;8249;48.708;9.030;2022-07-06T13:58:45;27.70;89.40
16283;DHT22;8249;48.708;9.030;2022-07-06T14:01:13;27.40;91.00
16283;DHT22;8249;48.708;9.030;2022-07-06T14:03:40;27.20;90.50
16283;DHT22;8249;48.708;9.030;2022-07-06T14:06:08;27.10;91.10
16283;DHT22;8249;48.708;9.030;2022-07-06T14:08:36;27.10;91.30
16283;DHT22;8249;48.708;9.030;2022-07-06T14:11:05;27.20;90.30
16283;DHT22;8249;48.708;9.030;2022-07-06T14:13:35;27.00;90.90
16283;DHT22;8249;48.708;9.030;2022-07-06T14:16:03;27.20;90.40
16283;DHT22;8249;48.708;9.030;2022-07-06T14:18:30;27.30;91.50
16283;DHT22;8249;48.708;9.030;2022-07-06T14:20:57;27.70;89.90
16283;DHT22;8249;48.708;9.030;2022-07-06T14:23:26;26.60;89.80
16283;DHT22;8249;48.708;9.030;2022-07-06T14:25:54;26.40;91.20
16283;DHT22;8249;48.708;9.030;2022-07-06T14:28:21;26.60;90.60
16283;DHT22;8249;48.708;9.030;2022-07-06T14:30:50;26.90;90.30
16283;DHT22;8249;48.708;9.030;2022-07-06T14:33:17;27.00;90.20
16283;DHT22;8249;48.708;9.030;2022-07-06T14:35:46;26.70;90.80
16283;DHT22;8249;48.708;9.030;2022-07-06T14:38:14;26.50;91.80
16283;DHT22;8249;48.708;9.030;2022-07-06T14:40:42;26.60;90.90
16283;DHT22;8249;48.708;9.030;2022-07-06T14:43:10;26.60;91.40
16283;DHT22;8249;48.708;9.030;2022-07-06T14:45:37;26.60;91.60
16283;DHT22;8249;48.708;9.030;2022-07-06T14:48:06;27.00;90.90
16283;DHT22;8249;48.708;9.030;2022-07-06T14:50:34;27.30;91.10
16283;DHT22;8249;48.708;9.030;2022-07-06T14:53:01;27.30;90.60
16283;DHT22;8249;48.708;9.030;2022-07-06T14:55:29;26.90;90.20
16283;DHT22;8249;48.708;9.030;2022-07-06T14:57:56;26.60;90.20
16283;DHT22;8249;48.708;9.030;2022-07-06T15:00:23;26.40;90.20
16283;DHT22;8249;48.708;9.030;2022-07-06T15:02:50;26.30;90.00
16283;DHT22;8249;48.708;9.030;2022-07-06T15:05:18;25.80;91.30
16283;DHT22;8249;48.708;9.030;2022-07-06T15:07:46;25.60;91.40
16283;DHT22;8249;48.708;9.030;2022-07-06T15:10:13;25.60;91.20
16283;DHT22;8249;48.708;9.030;2022-07-06T15:12:40;25.80;91.40
16283;DHT22;8249;48.708;9.030;2022-07-06T15:15:08;25.60;91.30
16283;DHT22;8249;48.708;9.030;2022-07-06T15:17:35;25.60;91.20
16283;DHT22;8249;48.708;9.030;2022-07-06T15:20:02;25.60;91.80
16283;DHT22;8249;48.708;9.030;2022-07-06T15:22:31;26.10;91.00
16283;DHT22;8249;48.708;9.030;2022-07-06T15:24:58;26.00;91.20
16283;DHT22;8249;48.708;9.030;2022-07-06T15:27:25;26.20;90.50
16283;DHT22;8249;48.708;9.030;2022-07-06T15:29:52;26.00;90.90
16283;DHT22;8249;48.708;9.030;2022-07-06T15:32:20;25.80;90.40
16283;DHT22;8249;48.708;9.030;2022-07-06T15:34:48;25.90;90.50
16283;DHT22;8249;48.708;9.030;2022-07-06T15:37:15;25.90;89.90
16283;DHT22;8249;48.708;9.030;2022-07-06T15:39:43;25.60;90.70
16283;DHT22;8249;48.708;9.030;2022-07-06T15:42:10;25.20;90.10
16283;DHT22;8249;48.708;9.030;2022-07-06T15:44:37;25.00;90.80
16283;DHT22;8249;48.708;9.030;2022-07-06T15:47:05;24.80;91.10
16283;DHT22;8249;48.708;9.030;2022-07-06T15:49:33;24.60;90.60
16283;DHT22;8249;48.708;9.030;2022-07-06T15:52:01;24.00;90.90
16283;DHT22;8249;48.708;9.030;2022-07-06T15:54:29;24.00;91.70